sensor_id;sensor_type;location;lat;lon;timestamp;temperature;humidity
47520;DHT22;33252;48.122;11.538;2023-11-22T00:01:10;6.50;99.90
47520;DHT22;33252;48.122;11.538;2023-11-22T00:03:36;6.50;99.90
47520;DHT22;33252;48.122;11.538;2023-11-22T00:06:01;6.60;99.90
47520;DHT22;33252;48.122;11.538;2023-11-22T00:08:27;6.60;99.90
47520;DHT22;33252;48.122;11.538;2023-11-22T00:10:54;6.60;99.90
47520;DHT22;33252;48.122;11.538;2023-11-22T00:13:20;6.50;99.90
47520;DHT22;33252;48.122;11.538;2023-11-22T00:15:45;6.50;99.90
47520;DHT22;33252;48.122;11.538;2023-11-22T00:18:11;6.50;99.90
47520;DHT22;33252;48.122;11.538;2023-11-22T00:20:36;6.50;99.90
47520;DHT22;33252;48.122;11.538;2023-11-22T00:23:02;6.50;99.90
47520;DHT22;33252;48.122;11.538;2023-11-22T00:25:28;6.50;99.90
47520;DHT22;33252;48.122;11.538;2023-11-22T00:27:54;6.50;99.90
47520;DHT22;33252;48.122;11.538;2023-11-22T00:30:20;6.50;99.90
47520;DHT22;33252;48.122;11.538;2023-11-22T00:32:46;6.50;99.90
47520;DHT22;33252;48.122;11.538;2023-11-22T00:35:11;6.40;99.90
47520;DHT22;33252;48.122;11.538;2023-11-22T00:37:37;6.50;99.90
47520;DHT22;33252;48.122;11.538;2023-11-22T00:40:03;6.40;99.90
47520;DHT22;33252;48.122;11.538;2023-11-22T00:42:37;6.40;99.90
47520;DHT22;33252;48.122;11.538;2023-11-22T00:45:04;6.40;99.90
47520;DHT22;33252;48.122;11.538;2023-11-22T00:47:32;6.40;99.90
47520;DHT22;33252;48.122;11.538;2023-11-22T00:49:57;6.40;99.90
47520;DHT22;33252;48.122;11.538;2023-11-22T00:52:24;6.50;99.90
47520;DHT22;33252;48.122;11.538;2023-11-22T00:54:49;6.50;99.90
47520;DHT22;33252;48.122;11.538;2023-11-22T00:57:15;6.50;99.90
47520;DHT22;33252;48.122;11.538;2023-11-22T00:59:40;6.50;99.90
47520;DHT22;33252;48.122;11.538;2023-11-22T01:02:06;6.50;99.90
47520;DHT22;33252;48.122;11.538;2023-11-22T01:04:34;6.50;99.90
47520;DHT22;33252;48.122;11.538;2023-11-22T01:07:01;6.50;99.90
47520;DHT22;33252;48.122;11.538;2023-11-22T01:09:26;6.50;99.90
47520;DHT22;33252;48.122;11.538;2023-11-22T01:11:54;6.50;99.90
47520;DHT22;33252;48.122;11.538;2023-11-22T01:14:19;6.50;99.90
47520;DHT22;33252;48.122;11.538;2023-11-22T01:16:45;6.50;99.90
47520;DHT22;33252;48.122;11.538;2023-11-22T01:19:10;6.50;99.90
47520;DHT22;33252;48.122;11.538;2023-11-22T01:21:36;6.40;99.90
47520;DHT22;33252;48.122;11.538;2023-11-22T01:24:02;6.30;99.90
47520;DHT22;33252;48.122;11.538;2023-11-22T01:26:28;6.40;99.90
47520;DHT22;33252;48.122;11.538;2023-11-22T01:28:53;6.40;99.90
47520;DHT22;33252;48.122;11.538;2023-11-22T01:31:19;6.30;99.90
47520;DHT22;33252;48.122;11.538;2023-11-22T01:33:48;6.30;99.90
47520;DHT22;33252;48.122;11.538;2023-11-22T01:36:14;6.40;99.90
47520;DHT22;33252;48.122;11.538;2023-11-22T01:38:40;6.30;99.90
47520;DHT22;33252;48.122;11.538;2023-11-22T01:41:06;6.40;99.90
47520;DHT22;33252;48.122;11.538;2023-11-22T01:43:32;6.40;99.90
47520;DHT22;33252;48.122;11.538;2023-11-22T01:45:58;6.40;99.90
47520;DHT22;33252;48.122;11.538;2023-11-22T01:48:24;6.40;99.90
47520;DHT22;33252;48.122;11.538;2023-11-22T01:50:49;6.30;99.90
47520;DHT22;33252;48.122;11.538;2023-11-22T01:53:16;6.40;99.90
47520;DHT22;33252;48.122;11.538;2023-11-22T01:55:42;6.40;99.90
47520;DHT22;33252;48.122;11.538;2023-11-22T01:58:08;6.30;99.90
47520;DHT22;33252;48.122;11.538;2023-11-22T02:00:45;6.30;99.90
47520;DHT22;33252;48.122;11.538;2023-11-22T02:03:11;6.40;99.90
47520;DHT22;33252;48.122;11.538;2023-11-22T02:05:40;6.40;99.90
47520;DHT22;33252;48.122;11.538;2023-11-22T02:08:10;6.30;99.90
47520;DHT22;33252;48.122;11.538;2023-11-22T02:10:36;6.30;99.90
47520;DHT22;33252;48.122;11.538;2023-11-22T02:13:03;6.30;99.90
47520;DHT22;33252;48.122;11.538;2023-11-22T02:15:30;6.30;99.90
47520;DHT22;33252;48.122;11.538;2023-11-22T02:17:56;6.30;99.90
47520;DHT22;33252;48.122;11.538;2023-11-22T02:20:22;6.10;99.90
47520;DHT22;33252;48.122;11.538;2023-11-22T02:22:48;6.00;99.90
47520;DHT22;33252;48.122;11.538;2023-11-22T02:25:14;5.60;99.90
47520;DHT22;33252;48.122;11.538;2023-11-22T02:27:41;5.40;99.90
47520;DHT22;33252;48.122;11.538;2023-11-22T02:30:08;5.10;99.90
47520;DHT22;33252;48.122;11.538;2023-11-22T02:32:33;5.00;99.90
47520;DHT22;33252;48.122;11.538;2023-11-22T02:34:59;5.00;99.90
47520;DHT22;33252;48.122;11.538;2023-11-22T02:37:26;4.80;99.90
47520;DHT22;33252;48.122;11.538;2023-11-22T02:40:04;4.80;99.90
47520;DHT22;33252;48.122;11.538;2023-11-22T02:42:30;4.60;99.90
47520;DHT22;33252;48.122;11.538;2023-11-22T02:44:56;4.60;99.90
47520;DHT22;33252;48.122;11.538;2023-11-22T02:47:22;4.40;99.90
47520;DHT22;33252;48.122;11.538;2023-11-22T02:49:48;4.40;99.90
47520;DHT22;33252;48.122;11.538;2023-11-22T02:52:14;4.20;99.90
47520;DHT22;33252;48.122;11.538;2023-11-22T02:54:45;4.20;99.90
47520;DHT22;33252;48.122;11.538;2023-11-22T02:57:11;4.20;99.90
47520;DHT22;33252;48.122;11.538;2023-11-22T02:59:40;4.20;99.90
47520;DHT22;33252;48.122;11.538;2023-11-22T03:02:06;4.10;99.90
47520;DHT22;33252;48.122;11.538;2023-11-22T03:04:32;4.00;99.90
47520;DHT22;33252;48.122;11.538;2023-11-22T03:06:59;4.00;99.90
47520;DHT22;33252;48.122;11.538;2023-11-22T03:09:25;4.10;99.90
47520;DHT22;33252;48.122;11.538;2023-11-22T03:11:52;3.90;99.90
47520;DHT22;33252;48.122;11.538;2023-11-22T03:14:18;3.90;99.90
47520;DHT22;33252;48.122;11.538;2023-11-22T03:16:44;3.80;99.90
47520;DHT22;33252;48.122;11.538;2023-11-22T03:19:10;3.80;99.90
47520;DHT22;33252;48.122;11.538;2023-11-22T03:21:38;3.80;99.90
47520;DHT22;33252;48.122;11.538;2023-11-22T03:24:04;3.90;99.90
47520;DHT22;33252;48.122;11.538;2023-11-22T03:26:30;3.80;99.90
47520;DHT22;33252;48.122;11.538;2023-11-22T03:28:55;3.70;99.90
47520;DHT22;33252;48.122;11.538;2023-11-22T03:31:21;3.60;99.90
47520;DHT22;33252;48.122;11.538;2023-11-22T03:33:47;3.60;99.90
47520;DHT22;33252;48.122;11.538;2023-11-22T03:36:12;3.60;99.90
47520;DHT22;33252;48.122;11.538;2023-11-22T03:38:39;3.60;99.90
47520;DHT22;33252;48.122;11.538;2023-11-22T03:41:05;3.50;99.90
47520;DHT22;33252;48.122;11.538;2023-11-22T03:43:30;3.50;99.90
47520;DHT22;33252;48.122;11.538;2023-11-22T03:45:56;3.60;99.90
47520;DHT22;33252;48.122;11.538;2023-11-22T03:48:22;3.70;99.90
47520;DHT22;33252;48.122;11.538;2023-11-22T03:50:49;3.70;99.90
47520;DHT22;33252;48.122;11.538;2023-11-22T03:53:14;3.70;99.90
47520;DHT22;33252;48.122;11.538;2023-11-22T03:55:40;3.80;99.90
47520;DHT22;33252;48.122;11.538;2023-11-22T03:58:06;3.70;99.90
47520;DHT22;33252;48.122;11.538;2023-11-22T04:00:33;3.70;99.90
47520;DHT22;33252;48.122;11.538;2023-11-22T04:02:59;3.70;99.90
47520;DHT22;33252;48.122;11.538;2023-11-22T04:05:27;3.70;99.90
47520;DHT22;33252;48.122;11.538;2023-11-22T04:07:52;3.70;99.90
47520;DHT22;33252;48.122;11.538;2023-11-22T04:10:18;3.80;99.90
47520;DHT22;33252;48.122;11.538;2023-11-22T04:12:45;3.80;99.90
47520;DHT22;33252;48.122;11.538;2023-11-22T04:15:11;3.70;99.90
47520;DHT22;33252;48.122;11.538;2023-11-22T04:17:37;3.70;99.90
47520;DHT22;33252;48.122;11.538;2023-11-22T04:20:05;3.70;99.90
47520;DHT22;33252;48.122;11.538;2023-11-22T04:22:34;3.80;99.90
47520;DHT22;33252;48.122;11.538;2023-11-22T04:25:00;3.80;99.90
47520;DHT22;33252;48.122;11.538;2023-11-22T04:27:26;3.60;99.90
47520;DHT22;33252;48.122;11.538;2023-11-22T04:29:52;3.50;99.90
47520;DHT22;33252;48.122;11.538;2023-11-22T04:32:17;3.60;99.90
47520;DHT22;33252;48.122;11.538;2023-11-22T04:34:43;3.60;99.90
47520;DHT22;33252;48.122;11.538;2023-11-22T04:37:08;3.70;99.90
47520;DHT22;33252;48.122;11.538;2023-11-22T04:39:34;3.70;99.90
47520;DHT22;33252;48.122;11.538;2023-11-22T04:41:59;3.70;99.90
47520;DHT22;33252;48.122;11.538;2023-11-22T04:44:25;3.80;99.90
47520;DHT22;33252;48.122;11.538;2023-11-22T04:46:51;3.80;99.90
47520;DHT22;33252;48.122;11.538;2023-11-22T04:49:17;3.80;99.90
47520;DHT22;33252;48.122;11.538;2023-11-22T04:51:42;3.80;99.90
47520;DHT22;33252;48.122;11.538;2023-11-22T04:54:09;3.70;99.90
47520;DHT22;33252;48.122;11.538;2023-11-22T04:56:35;3.70;99.90
47520;DHT22;33252;48.122;11.538;2023-11-22T04:59:00;3.70;99.90
47520;DHT22;33252;48.122;11.538;2023-11-22T05:01:34;3.70;99.90
47520;DHT22;33252;48.122;11.538;2023-11-22T05:04:00;3.60;99.90
47520;DHT22;33252;48.122;11.538;2023-11-22T05:06:25;3.60;99.90
47520;DHT22;33252;48.122;11.538;2023-11-22T05:08:52;3.60;99.90
47520;DHT22;33252;48.122;11.538;2023-11-22T05:11:19;3.70;99.90
47520;DHT22;33252;48.122;11.538;2023-11-22T05:13:44;3.70;99.90
47520;DHT22;33252;48.122;11.538;2023-11-22T05:16:10;3.60;99.90
47520;DHT22;33252;48.122;11.538;2023-11-22T05:18:36;3.60;99.90
47520;DHT22;33252;48.122;11.538;2023-11-22T05:21:02;3.60;99.90
47520;DHT22;33252;48.122;11.538;2023-11-22T05:23:30;3.60;99.90
47520;DHT22;33252;48.122;11.538;2023-11-22T05:25:56;3.60;99.90
47520;DHT22;33252;48.122;11.538;2023-11-22T05:28:22;3.40;99.90
47520;DHT22;33252;48.122;11.538;2023-11-22T05:30:48;3.40;99.90
47520;DHT22;33252;48.122;11.538;2023-11-22T05:33:14;3.40;99.90
47520;DHT22;33252;48.122;11.538;2023-11-22T05:35:39;3.40;99.90
47520;DHT22;33252;48.122;11.538;2023-11-22T05:38:07;3.40;99.90
47520;DHT22;33252;48.122;11.538;2023-11-22T05:40:33;3.30;99.90
47520;DHT22;33252;48.122;11.538;2023-11-22T05:42:58;3.30;99.90
47520;DHT22;33252;48.122;11.538;2023-11-22T05:45:24;3.20;99.90
47520;DHT22;33252;48.122;11.538;2023-11-22T05:47:50;3.40;99.90
47520;DHT22;33252;48.122;11.538;2023-11-22T05:50:16;3.30;99.90
47520;DHT22;33252;48.122;11.538;2023-11-22T05:52:42;3.30;99.90
47520;DHT22;33252;48.122;11.538;2023-11-22T05:55:08;3.30;99.90
47520;DHT22;33252;48.122;11.538;2023-11-22T05:57:34;3.30;99.90
47520;DHT22;33252;48.122;11.538;2023-11-22T06:00:00;3.40;99.90
47520;DHT22;33252;48.122;11.538;2023-11-22T06:02:25;3.20;99.90
47520;DHT22;33252;48.122;11.538;2023-11-22T06:04:51;3.30;99.90
47520;DHT22;33252;48.122;11.538;2023-11-22T06:07:16;3.30;99.90
47520;DHT22;33252;48.122;11.538;2023-11-22T06:09:42;3.40;99.90
47520;DHT22;33252;48.122;11.538;2023-11-22T06:12:07;3.40;99.90
47520;DHT22;33252;48.122;11.538;2023-11-22T06:14:33;3.30;99.90
47520;DHT22;33252;48.122;11.538;2023-11-22T06:16:58;3.30;99.90
47520;DHT22;33252;48.122;11.538;2023-11-22T06:19:24;3.30;99.90
47520;DHT22;33252;48.122;11.538;2023-11-22T06:21:49;3.20;99.90
47520;DHT22;33252;48.122;11.538;2023-11-22T06:24:15;3.20;99.90
47520;DHT22;33252;48.122;11.538;2023-11-22T06:26:45;3.30;99.90
47520;DHT22;33252;48.122;11.538;2023-11-22T06:29:11;3.30;99.90
47520;DHT22;33252;48.122;11.538;2023-11-22T06:31:37;3.30;99.90
47520;DHT22;33252;48.122;11.538;2023-11-22T06:34:02;3.30;99.90
47520;DHT22;33252;48.122;11.538;2023-11-22T06:36:28;3.30;99.90
47520;DHT22;33252;48.122;11.538;2023-11-22T06:38:55;3.30;99.90
47520;DHT22;33252;48.122;11.538;2023-11-22T06:41:20;3.30;99.90
47520;DHT22;33252;48.122;11.538;2023-11-22T06:43:47;3.40;99.90
47520;DHT22;33252;48.122;11.538;2023-11-22T06:46:13;3.40;99.90
47520;DHT22;33252;48.122;11.538;2023-11-22T06:48:42;3.40;99.90
47520;DHT22;33252;48.122;11.538;2023-11-22T06:51:09;3.40;99.90
47520;DHT22;33252;48.122;11.538;2023-11-22T06:53:34;3.40;99.90
47520;DHT22;33252;48.122;11.538;2023-11-22T06:56:00;3.50;99.90
47520;DHT22;33252;48.122;11.538;2023-11-22T06:58:26;3.50;99.90
47520;DHT22;33252;48.122;11.538;2023-11-22T07:00:52;3.40;99.90
47520;DHT22;33252;48.122;11.538;2023-11-22T07:03:17;3.50;99.90
47520;DHT22;33252;48.122;11.538;2023-11-22T07:05:44;3.50;99.90
47520;DHT22;33252;48.122;11.538;2023-11-22T07:08:09;3.40;99.90
47520;DHT22;33252;48.122;11.538;2023-11-22T07:10:36;3.40;99.90
47520;DHT22;33252;48.122;11.538;2023-11-22T07:13:02;3.50;99.90
47520;DHT22;33252;48.122;11.538;2023-11-22T07:15:28;3.40;99.90
47520;DHT22;33252;48.122;11.538;2023-11-22T07:17:53;3.40;99.90
47520;DHT22;33252;48.122;11.538;2023-11-22T07:20:20;3.50;99.90
47520;DHT22;33252;48.122;11.538;2023-11-22T07:22:46;3.50;99.90
47520;DHT22;33252;48.122;11.538;2023-11-22T07:25:12;3.50;99.90
47520;DHT22;33252;48.122;11.538;2023-11-22T07:27:47;3.40;99.90
47520;DHT22;33252;48.122;11.538;2023-11-22T07:30:13;3.30;99.90
47520;DHT22;33252;48.122;11.538;2023-11-22T07:32:40;3.40;99.90
47520;DHT22;33252;48.122;11.538;2023-11-22T07:35:06;3.30;99.90
47520;DHT22;33252;48.122;11.538;2023-11-22T07:37:34;3.20;99.90
47520;DHT22;33252;48.122;11.538;2023-11-22T07:40:01;3.20;99.90
47520;DHT22;33252;48.122;11.538;2023-11-22T07:42:28;3.30;99.90
47520;DHT22;33252;48.122;11.538;2023-11-22T07:44:54;3.30;99.90
47520;DHT22;33252;48.122;11.538;2023-11-22T07:47:22;3.20;99.90
47520;DHT22;33252;48.122;11.538;2023-11-22T07:49:48;3.20;99.90
47520;DHT22;33252;48.122;11.538;2023-11-22T07:52:14;3.20;99.90
47520;DHT22;33252;48.122;11.538;2023-11-22T07:54:40;3.30;99.90
47520;DHT22;33252;48.122;11.538;2023-11-22T07:57:06;3.30;99.90
47520;DHT22;33252;48.122;11.538;2023-11-22T07:59:32;3.30;99.90
47520;DHT22;33252;48.122;11.538;2023-11-22T08:01:58;3.20;99.90
47520;DHT22;33252;48.122;11.538;2023-11-22T08:04:23;3.20;99.90
47520;DHT22;33252;48.122;11.538;2023-11-22T08:06:50;3.20;99.90
47520;DHT22;33252;48.122;11.538;2023-11-22T08:09:16;3.40;99.90
47520;DHT22;33252;48.122;11.538;2023-11-22T08:11:43;3.30;99.90
47520;DHT22;33252;48.122;11.538;2023-11-22T08:14:08;3.10;99.90
47520;DHT22;33252;48.122;11.538;2023-11-22T08:16:34;3.20;99.90
47520;DHT22;33252;48.122;11.538;2023-11-22T08:19:04;3.20;99.90
47520;DHT22;33252;48.122;11.538;2023-11-22T08:21:30;3.30;99.90
47520;DHT22;33252;48.122;11.538;2023-11-22T08:23:56;3.30;99.90
47520;DHT22;33252;48.122;11.538;2023-11-22T08:26:21;3.40;99.90
47520;DHT22;33252;48.122;11.538;2023-11-22T08:28:47;3.40;99.90
47520;DHT22;33252;48.122;11.538;2023-11-22T08:31:12;3.30;99.90
47520;DHT22;33252;48.122;11.538;2023-11-22T08:33:39;3.30;99.90
47520;DHT22;33252;48.122;11.538;2023-11-22T08:36:06;3.30;99.90
47520;DHT22;33252;48.122;11.538;2023-11-22T08:38:32;3.30;99.90
47520;DHT22;33252;48.122;11.538;2023-11-22T08:41:04;3.20;99.90
47520;DHT22;33252;48.122;11.538;2023-11-22T08:43:31;3.10;99.90
47520;DHT22;33252;48.122;11.538;2023-11-22T08:45:57;3.00;99.90
47520;DHT22;33252;48.122;11.538;2023-11-22T08:48:23;3.10;99.90
47520;DHT22;33252;48.122;11.538;2023-11-22T08:50:49;3.10;99.90
47520;DHT22;33252;48.122;11.538;2023-11-22T08:53:15;3.00;99.90
47520;DHT22;33252;48.122;11.538;2023-11-22T08:55:42;3.10;99.90
47520;DHT22;33252;48.122;11.538;2023-11-22T08:58:10;3.10;99.90
47520;DHT22;33252;48.122;11.538;2023-11-22T09:00:35;3.20;99.90
47520;DHT22;33252;48.122;11.538;2023-11-22T09:03:01;3.30;99.90
47520;DHT22;33252;48.122;11.538;2023-11-22T09:05:28;3.30;99.90
47520;DHT22;33252;48.122;11.538;2023-11-22T09:07:54;3.10;99.90
47520;DHT22;33252;48.122;11.538;2023-11-22T09:10:21;3.10;99.90
47520;DHT22;33252;48.122;11.538;2023-11-22T09:12:47;3.20;99.90
47520;DHT22;33252;48.122;11.538;2023-11-22T09:15:13;3.30;99.90
47520;DHT22;33252;48.122;11.538;2023-11-22T09:17:44;3.40;99.90
47520;DHT22;33252;48.122;11.538;2023-11-22T09:20:12;3.40;99.90
47520;DHT22;33252;48.122;11.538;2023-11-22T09:22:45;3.40;99.90
47520;DHT22;33252;48.122;11.538;2023-11-22T09:25:17;3.40;99.90
47520;DHT22;33252;48.122;11.538;2023-11-22T09:27:45;3.30;99.90
47520;DHT22;33252;48.122;11.538;2023-11-22T09:30:13;3.40;99.90
47520;DHT22;33252;48.122;11.538;2023-11-22T09:32:44;3.40;99.90
47520;DHT22;33252;48.122;11.538;2023-11-22T09:35:11;3.20;99.90
47520;DHT22;33252;48.122;11.538;2023-11-22T09:37:39;3.20;99.90
47520;DHT22;33252;48.122;11.538;2023-11-22T09:40:08;3.20;99.90
47520;DHT22;33252;48.122;11.538;2023-11-22T09:42:34;3.00;99.90
47520;DHT22;33252;48.122;11.538;2023-11-22T09:45:00;3.10;99.90
47520;DHT22;33252;48.122;11.538;2023-11-22T09:47:27;3.30;99.90
47520;DHT22;33252;48.122;11.538;2023-11-22T09:49:55;3.30;99.90
47520;DHT22;33252;48.122;11.538;2023-11-22T09:52:23;3.10;99.90
47520;DHT22;33252;48.122;11.538;2023-11-22T09:54:50;3.30;99.90
47520;DHT22;33252;48.122;11.538;2023-11-22T09:57:19;3.10;99.90
47520;DHT22;33252;48.122;11.538;2023-11-22T09:59:48;3.20;99.90
47520;DHT22;33252;48.122;11.538;2023-11-22T10:02:17;3.10;99.90
47520;DHT22;33252;48.122;11.538;2023-11-22T10:04:43;3.00;99.90
47520;DHT22;33252;48.122;11.538;2023-11-22T10:07:09;3.00;99.90
47520;DHT22;33252;48.122;11.538;2023-11-22T10:09:36;2.80;99.90
47520;DHT22;33252;48.122;11.538;2023-11-22T10:12:03;2.90;99.90
47520;DHT22;33252;48.122;11.538;2023-11-22T10:14:30;3.00;99.90
47520;DHT22;33252;48.122;11.538;2023-11-22T10:17:02;3.00;99.90
47520;DHT22;33252;48.122;11.538;2023-11-22T10:19:28;2.90;99.90
47520;DHT22;33252;48.122;11.538;2023-11-22T10:22:07;2.90;99.90
47520;DHT22;33252;48.122;11.538;2023-11-22T10:24:33;3.00;99.90
47520;DHT22;33252;48.122;11.538;2023-11-22T10:27:00;3.10;99.90
47520;DHT22;33252;48.122;11.538;2023-11-22T10:29:26;3.20;99.90
47520;DHT22;33252;48.122;11.538;2023-11-22T10:31:52;3.30;99.90
47520;DHT22;33252;48.122;11.538;2023-11-22T10:34:21;3.20;99.90
47520;DHT22;33252;48.122;11.538;2023-11-22T10:36:48;3.20;99.90
47520;DHT22;33252;48.122;11.538;2023-11-22T10:39:19;3.30;99.90
47520;DHT22;33252;48.122;11.538;2023-11-22T10:41:45;3.40;99.90
47520;DHT22;33252;48.122;11.538;2023-11-22T10:44:11;3.40;99.90
47520;DHT22;33252;48.122;11.538;2023-11-22T10:46:39;3.40;99.90
47520;DHT22;33252;48.122;11.538;2023-11-22T10:49:05;3.50;99.90
47520;DHT22;33252;48.122;11.538;2023-11-22T10:51:32;3.60;99.90
47520;DHT22;33252;48.122;11.538;2023-11-22T10:54:00;3.70;99.90
47520;DHT22;33252;48.122;11.538;2023-11-22T10:56:35;3.60;99.90
47520;DHT22;33252;48.122;11.538;2023-11-22T10:59:06;3.70;99.90
47520;DHT22;33252;48.122;11.538;2023-11-22T11:01:34;3.80;99.90
47520;DHT22;33252;48.122;11.538;2023-11-22T11:04:02;3.70;99.90
47520;DHT22;33252;48.122;11.538;2023-11-22T11:06:33;3.60;99.90
47520;DHT22;33252;48.122;11.538;2023-11-22T11:09:01;3.50;99.90
47520;DHT22;33252;48.122;11.538;2023-11-22T11:11:32;3.60;99.90
47520;DHT22;33252;48.122;11.538;2023-11-22T11:14:00;3.40;99.90
47520;DHT22;33252;48.122;11.538;2023-11-22T11:16:27;3.60;99.90
47520;DHT22;33252;48.122;11.538;2023-11-22T11:18:54;3.70;99.90
47520;DHT22;33252;48.122;11.538;2023-11-22T11:21:20;3.60;99.90
47520;DHT22;33252;48.122;11.538;2023-11-22T11:23:45;3.50;99.90
47520;DHT22;33252;48.122;11.538;2023-11-22T11:26:16;3.50;99.90
47520;DHT22;33252;48.122;11.538;2023-11-22T11:28:45;3.70;99.90
47520;DHT22;33252;48.122;11.538;2023-11-22T11:31:13;3.70;99.90
47520;DHT22;33252;48.122;11.538;2023-11-22T11:36:28;3.60;99.90
47520;DHT22;33252;48.122;11.538;2023-11-22T11:38:56;3.60;99.90
47520;DHT22;33252;48.122;11.538;2023-11-22T11:41:29;3.70;99.90
47520;DHT22;33252;48.122;11.538;2023-11-22T11:43:56;3.70;99.90
47520;DHT22;33252;48.122;11.538;2023-11-22T11:46:23;3.80;99.90
47520;DHT22;33252;48.122;11.538;2023-11-22T11:48:50;3.80;99.90
47520;DHT22;33252;48.122;11.538;2023-11-22T11:51:17;3.70;99.90
47520;DHT22;33252;48.122;11.538;2023-11-22T11:53:44;3.80;99.90
47520;DHT22;33252;48.122;11.538;2023-11-22T11:56:10;3.70;99.90
47520;DHT22;33252;48.122;11.538;2023-11-22T11:58:37;3.70;99.90
47520;DHT22;33252;48.122;11.538;2023-11-22T12:01:04;3.80;99.90
47520;DHT22;33252;48.122;11.538;2023-11-22T12:03:30;3.70;99.90
47520;DHT22;33252;48.122;11.538;2023-11-22T12:05:55;3.80;99.90
47520;DHT22;33252;48.122;11.538;2023-11-22T12:08:21;3.80;99.90
47520;DHT22;33252;48.122;11.538;2023-11-22T12:10:47;3.80;99.90
47520;DHT22;33252;48.122;11.538;2023-11-22T12:13:20;3.80;99.90
47520;DHT22;33252;48.122;11.538;2023-11-22T12:15:47;3.70;99.90
47520;DHT22;33252;48.122;11.538;2023-11-22T12:18:12;3.70;99.90
47520;DHT22;33252;48.122;11.538;2023-11-22T12:20:38;3.70;99.90
47520;DHT22;33252;48.122;11.538;2023-11-22T12:23:04;3.70;99.90
47520;DHT22;33252;48.122;11.538;2023-11-22T12:25:30;3.60;99.90
47520;DHT22;33252;48.122;11.538;2023-11-22T12:27:56;3.50;99.90
47520;DHT22;33252;48.122;11.538;2023-11-22T12:30:33;3.50;99.90
47520;DHT22;33252;48.122;11.538;2023-11-22T12:33:04;3.50;99.90
47520;DHT22;33252;48.122;11.538;2023-11-22T12:35:30;3.60;99.90
47520;DHT22;33252;48.122;11.538;2023-11-22T12:37:56;3.40;99.90
47520;DHT22;33252;48.122;11.538;2023-11-22T12:40:23;3.50;99.90
47520;DHT22;33252;48.122;11.538;2023-11-22T12:42:52;3.40;99.90
47520;DHT22;33252;48.122;11.538;2023-11-22T12:45:20;3.40;99.90
47520;DHT22;33252;48.122;11.538;2023-11-22T12:47:45;3.40;99.90
47520;DHT22;33252;48.122;11.538;2023-11-22T12:50:36;3.40;99.90
47520;DHT22;33252;48.122;11.538;2023-11-22T12:53:16;3.50;99.90
47520;DHT22;33252;48.122;11.538;2023-11-22T12:55:45;3.50;99.90
47520;DHT22;33252;48.122;11.538;2023-11-22T12:58:13;3.40;99.90
47520;DHT22;33252;48.122;11.538;2023-11-22T13:00:39;3.50;99.90
47520;DHT22;33252;48.122;11.538;2023-11-22T13:03:08;3.50;99.90
47520;DHT22;33252;48.122;11.538;2023-11-22T13:05:38;3.50;99.90
47520;DHT22;33252;48.122;11.538;2023-11-22T13:08:04;3.50;99.90
47520;DHT22;33252;48.122;11.538;2023-11-22T13:10:30;3.40;99.90
47520;DHT22;33252;48.122;11.538;2023-11-22T13:12:56;3.40;99.90
47520;DHT22;33252;48.122;11.538;2023-11-22T13:15:22;3.30;99.90
47520;DHT22;33252;48.122;11.538;2023-11-22T13:17:55;3.40;99.90
47520;DHT22;33252;48.122;11.538;2023-11-22T13:20:22;3.40;99.90
47520;DHT22;33252;48.122;11.538;2023-11-22T13:22:49;3.50;99.90
47520;DHT22;33252;48.122;11.538;2023-11-22T13:25:14;3.60;99.90
47520;DHT22;33252;48.122;11.538;2023-11-22T13:27:40;3.60;99.90
47520;DHT22;33252;48.122;11.538;2023-11-22T13:30:07;3.60;99.90
47520;DHT22;33252;48.122;11.538;2023-11-22T13:32:32;3.50;99.90
47520;DHT22;33252;48.122;11.538;2023-11-22T13:34:58;3.60;99.90
47520;DHT22;33252;48.122;11.538;2023-11-22T13:37:24;3.60;99.90
47520;DHT22;33252;48.122;11.538;2023-11-22T13:39:50;3.60;99.90
47520;DHT22;33252;48.122;11.538;2023-11-22T13:42:16;3.50;99.90
47520;DHT22;33252;48.122;11.538;2023-11-22T13:44:42;3.60;99.90
47520;DHT22;33252;48.122;11.538;2023-11-22T13:47:09;3.60;99.90
47520;DHT22;33252;48.122;11.538;2023-11-22T13:49:35;3.50;99.90
47520;DHT22;33252;48.122;11.538;2023-11-22T13:52:01;3.50;99.90
47520;DHT22;33252;48.122;11.538;2023-11-22T13:54:27;3.60;99.90
47520;DHT22;33252;48.122;11.538;2023-11-22T13:56:52;3.70;99.90
47520;DHT22;33252;48.122;11.538;2023-11-22T13:59:18;3.70;99.90
47520;DHT22;33252;48.122;11.538;2023-11-22T14:01:45;3.70;99.90
47520;DHT22;33252;48.122;11.538;2023-11-22T14:04:11;3.70;99.90
47520;DHT22;33252;48.122;11.538;2023-11-22T14:06:36;3.70;99.90
47520;DHT22;33252;48.122;11.538;2023-11-22T14:09:02;3.60;99.90
47520;DHT22;33252;48.122;11.538;2023-11-22T14:11:28;3.60;99.90
47520;DHT22;33252;48.122;11.538;2023-11-22T14:13:53;3.50;99.90
47520;DHT22;33252;48.122;11.538;2023-11-22T14:16:19;3.60;99.90
47520;DHT22;33252;48.122;11.538;2023-11-22T14:18:44;3.50;99.90
47520;DHT22;33252;48.122;11.538;2023-11-22T14:21:10;3.50;99.90
47520;DHT22;33252;48.122;11.538;2023-11-22T14:23:36;3.30;99.90
47520;DHT22;33252;48.122;11.538;2023-11-22T14:26:03;3.30;99.90
47520;DHT22;33252;48.122;11.538;2023-11-22T14:28:28;3.30;99.90
47520;DHT22;33252;48.122;11.538;2023-11-22T14:30:54;3.30;99.90
47520;DHT22;33252;48.122;11.538;2023-11-22T14:33:21;3.40;99.90
47520;DHT22;33252;48.122;11.538;2023-11-22T14:35:46;3.40;99.90
47520;DHT22;33252;48.122;11.538;2023-11-22T14:38:12;3.40;99.90
47520;DHT22;33252;48.122;11.538;2023-11-22T14:40:39;3.40;99.90
47520;DHT22;33252;48.122;11.538;2023-11-22T14:43:05;3.40;99.90
47520;DHT22;33252;48.122;11.538;2023-11-22T14:45:31;3.40;99.90
47520;DHT22;33252;48.122;11.538;2023-11-22T14:47:58;3.30;99.90
47520;DHT22;33252;48.122;11.538;2023-11-22T14:50:23;3.30;99.90
47520;DHT22;33252;48.122;11.538;2023-11-22T14:52:52;3.30;99.90
47520;DHT22;33252;48.122;11.538;2023-11-22T14:55:18;3.20;99.90
47520;DHT22;33252;48.122;11.538;2023-11-22T14:57:49;3.20;99.90
47520;DHT22;33252;48.122;11.538;2023-11-22T15:00:16;3.20;99.90
47520;DHT22;33252;48.122;11.538;2023-11-22T15:03:02;3.20;99.90
47520;DHT22;33252;48.122;11.538;2023-11-22T15:05:28;3.20;99.90
47520;DHT22;33252;48.122;11.538;2023-11-22T15:07:55;3.10;99.90
47520;DHT22;33252;48.122;11.538;2023-11-22T15:10:22;3.00;99.90
47520;DHT22;33252;48.122;11.538;2023-11-22T15:12:57;3.10;99.90
47520;DHT22;33252;48.122;11.538;2023-11-22T15:15:39;3.00;99.90
47520;DHT22;33252;48.122;11.538;2023-11-22T15:18:08;3.10;99.90
47520;DHT22;33252;48.122;11.538;2023-11-22T15:20:43;3.10;99.90
47520;DHT22;33252;48.122;11.538;2023-11-22T15:23:12;3.20;99.90
47520;DHT22;33252;48.122;11.538;2023-11-22T15:26:01;3.10;99.90
47520;DHT22;33252;48.122;11.538;2023-11-22T15:28:29;3.10;99.90
47520;DHT22;33252;48.122;11.538;2023-11-22T15:30:58;3.20;99.90